<?xml version="1.0" encoding="UTF-8" standalone="no" ?>
<gpx xmlns="http://www.topografix.com/GPX/1/1" xmlns:xsi="http://www.w3.org/2001/XMLSchema-instance" xsi:schemaLocation="http://www.topografix.com/GPX/1/1 http://www.topografix.com/GPX/1/1/gpx.xsd" version="1.1" creator="VisuGPX - https://www.visugpx.com">
  <metadata>
    <name>mega parcours rouge</name>
  </metadata>
  <trk>
    <name><![CDATA[mega parcours rouge_7]]></name>
    <trkseg>
      <trkpt lat="47.62615" lon="6.6274">
        <ele>440</ele>
        <time>2020-12-10T18:40:25+01:00</time>
      </trkpt>
      <trkpt lat="47.62586" lon="6.62766">
        <ele>439</ele>
        <time>2020-12-10T18:40:27+01:00</time>
      </trkpt>
      <trkpt lat="47.62607" lon="6.62894">
        <ele>439</ele>
        <time>2020-12-10T18:40:29+01:00</time>
      </trkpt>
      <trkpt lat="47.62476" lon="6.62997">
        <ele>438</ele>
        <time>2020-12-10T18:40:31+01:00</time>
      </trkpt>
      <trkpt lat="47.62413" lon="6.62989">
        <ele>436</ele>
        <time>2020-12-10T18:40:33+01:00</time>
      </trkpt>
      <trkpt lat="47.6228" lon="6.62916">
        <ele>420</ele>
        <time>2020-12-10T18:40:35+01:00</time>
      </trkpt>
      <trkpt lat="47.62262" lon="6.6304">
        <ele>413</ele>
        <time>2020-12-10T18:40:37+01:00</time>
      </trkpt>
      <trkpt lat="47.62358" lon="6.63332">
        <ele>417</ele>
        <time>2020-12-10T18:40:39+01:00</time>
      </trkpt>
      <trkpt lat="47.62393" lon="6.63564">
        <ele>408</ele>
        <time>2020-12-10T18:40:40+01:00</time>
      </trkpt>
      <trkpt lat="47.62381" lon="6.63607">
        <ele>403</ele>
        <time>2020-12-10T18:40:42+01:00</time>
      </trkpt>
      <trkpt lat="47.62352" lon="6.63487">
        <ele>394</ele>
        <time>2020-12-10T18:40:45+01:00</time>
      </trkpt>
      <trkpt lat="47.62251" lon="6.63199">
        <ele>390</ele>
        <time>2020-12-10T18:40:47+01:00</time>
      </trkpt>
      <trkpt lat="47.62199" lon="6.63002">
        <ele>383</ele>
        <time>2020-12-10T18:40:49+01:00</time>
      </trkpt>
      <trkpt lat="47.62219" lon="6.62774">
        <ele>368</ele>
        <time>2020-12-10T18:40:51+01:00</time>
      </trkpt>
      <trkpt lat="47.6232" lon="6.62744">
        <ele>364</ele>
        <time>2020-12-10T18:40:53+01:00</time>
      </trkpt>
      <trkpt lat="47.62271" lon="6.6271">
        <ele>354</ele>
        <time>2020-12-10T18:40:55+01:00</time>
      </trkpt>
      <trkpt lat="47.621" lon="6.6271">
        <ele>329</ele>
        <time>2020-12-10T18:40:57+01:00</time>
      </trkpt>
      <trkpt lat="47.62126" lon="6.62637">
        <ele>329</ele>
        <time>2020-12-10T18:40:59+01:00</time>
      </trkpt>
      <trkpt lat="47.62002" lon="6.62306">
        <ele>330</ele>
        <time>2020-12-10T18:41:02+01:00</time>
      </trkpt>
      <trkpt lat="47.61814" lon="6.62015">
        <ele>329</ele>
        <time>2020-12-10T18:41:04+01:00</time>
      </trkpt>
      <trkpt lat="47.61776" lon="6.61929">
        <ele>329</ele>
        <time>2020-12-10T18:41:06+01:00</time>
      </trkpt>
      <trkpt lat="47.61768" lon="6.6183">
        <ele>328</ele>
        <time>2020-12-10T18:41:09+01:00</time>
      </trkpt>
      <trkpt lat="47.61743" lon="6.6198">
        <ele>321</ele>
      </trkpt>
      <trkpt lat="47.61659" lon="6.61976">
        <ele>319</ele>
      </trkpt>
      <trkpt lat="47.6159" lon="6.61826">
        <ele>320</ele>
      </trkpt>
      <trkpt lat="47.61532" lon="6.61869">
        <ele>325</ele>
      </trkpt>
      <trkpt lat="47.61477" lon="6.61839">
        <ele>336</ele>
      </trkpt>
      <trkpt lat="47.61457" lon="6.61881">
        <ele>333</ele>
      </trkpt>
      <trkpt lat="47.61405" lon="6.61907">
        <ele>337</ele>
      </trkpt>
      <trkpt lat="47.6135" lon="6.62032">
        <ele>345</ele>
      </trkpt>
      <trkpt lat="47.61329" lon="6.61817">
        <ele>358</ele>
      </trkpt>
      <trkpt lat="47.61457" lon="6.61693">
        <ele>363</ele>
      </trkpt>
      <trkpt lat="47.61483" lon="6.61577">
        <ele>372</ele>
      </trkpt>
      <trkpt lat="47.61413" lon="6.61478">
        <ele>403</ele>
      </trkpt>
      <trkpt lat="47.61292" lon="6.60706">
        <ele>403</ele>
      </trkpt>
      <trkpt lat="47.6128" lon="6.60414">
        <ele>413</ele>
      </trkpt>
      <trkpt lat="47.61101" lon="6.6047">
        <ele>416</ele>
      </trkpt>
      <trkpt lat="47.61101" lon="6.60534">
        <ele>419</ele>
      </trkpt>
      <trkpt lat="47.61075" lon="6.60783">
        <ele>428</ele>
      </trkpt>
      <trkpt lat="47.61112" lon="6.60937">
        <ele>432</ele>
      </trkpt>
      <trkpt lat="47.61002" lon="6.60894">
        <ele>427</ele>
      </trkpt>
      <trkpt lat="47.61005" lon="6.60993">
        <ele>430</ele>
      </trkpt>
      <trkpt lat="47.61075" lon="6.61263">
        <ele>439</ele>
      </trkpt>
      <trkpt lat="47.6111" lon="6.61654">
        <ele>439</ele>
      </trkpt>
      <trkpt lat="47.60835" lon="6.61907">
        <ele>434</ele>
      </trkpt>
      <trkpt lat="47.60765" lon="6.62032">
        <ele>431</ele>
        <time>2020-12-10T18:41:11+01:00</time>
      </trkpt>
      <trkpt lat="47.60673" lon="6.62045">
        <ele>431</ele>
        <time>2020-12-10T18:41:13+01:00</time>
      </trkpt>
      <trkpt lat="47.60508" lon="6.61963">
        <ele>430</ele>
        <time>2020-12-10T18:41:16+01:00</time>
      </trkpt>
      <trkpt lat="47.60392" lon="6.62019">
        <ele>425</ele>
        <time>2020-12-10T18:41:18+01:00</time>
      </trkpt>
      <trkpt lat="47.60215" lon="6.6183">
        <ele>410</ele>
        <time>2020-12-10T18:41:21+01:00</time>
      </trkpt>
      <trkpt lat="47.60204" lon="6.61736">
        <ele>406</ele>
        <time>2020-12-10T18:41:23+01:00</time>
      </trkpt>
      <trkpt lat="47.60134" lon="6.61718">
        <ele>401</ele>
        <time>2020-12-10T18:41:26+01:00</time>
      </trkpt>
      <trkpt lat="47.60077" lon="6.6162">
        <ele>396</ele>
        <time>2020-12-10T18:41:28+01:00</time>
      </trkpt>
      <trkpt lat="47.59975" lon="6.61718">
        <ele>391</ele>
        <time>2020-12-10T18:41:31+01:00</time>
      </trkpt>
      <trkpt lat="47.59888" lon="6.6171">
        <ele>400</ele>
        <time>2020-12-10T18:41:34+01:00</time>
      </trkpt>
      <trkpt lat="47.597" lon="6.61916">
        <ele>418</ele>
        <time>2020-12-10T18:41:36+01:00</time>
      </trkpt>
      <trkpt lat="47.59744" lon="6.6204">
        <ele>408</ele>
        <time>2020-12-10T18:41:39+01:00</time>
      </trkpt>
      <trkpt lat="47.59877" lon="6.62109">
        <ele>390</ele>
        <time>2020-12-10T18:41:42+01:00</time>
      </trkpt>
      <trkpt lat="47.60022" lon="6.62225">
        <ele>369</ele>
        <time>2020-12-10T18:41:45+01:00</time>
      </trkpt>
      <trkpt lat="47.60062" lon="6.62401">
        <ele>360</ele>
        <time>2020-12-10T18:41:47+01:00</time>
      </trkpt>
      <trkpt lat="47.60003" lon="6.62482">
        <ele>360</ele>
        <time>2020-12-10T18:41:50+01:00</time>
      </trkpt>
      <trkpt lat="47.60066" lon="6.62503">
        <ele>362.9</ele>
      </trkpt>
      <trkpt lat="47.60066" lon="6.62503">
        <ele>362.9</ele>
      </trkpt>
      <trkpt lat="47.6005" lon="6.62655">
        <ele>359.4</ele>
      </trkpt>
      <trkpt lat="47.6005" lon="6.62655">
        <ele>359.4</ele>
      </trkpt>
      <trkpt lat="47.59969" lon="6.62807">
        <ele>363.2</ele>
      </trkpt>
      <trkpt lat="47.59969" lon="6.62807">
        <ele>363.2</ele>
      </trkpt>
      <trkpt lat="47.60007" lon="6.62871">
        <ele>358.4</ele>
      </trkpt>
      <trkpt lat="47.60007" lon="6.62871">
        <ele>358.4</ele>
      </trkpt>
      <trkpt lat="47.60125" lon="6.62759">
        <ele>347.6</ele>
      </trkpt>
      <trkpt lat="47.60125" lon="6.62759">
        <ele>347.6</ele>
      </trkpt>
      <trkpt lat="47.60196" lon="6.62847">
        <ele>356.8</ele>
      </trkpt>
      <trkpt lat="47.60196" lon="6.62847">
        <ele>356.8</ele>
      </trkpt>
      <trkpt lat="47.60287" lon="6.62975">
        <ele>350.3</ele>
      </trkpt>
      <trkpt lat="47.60287" lon="6.62975">
        <ele>350.3</ele>
      </trkpt>
      <trkpt lat="47.60352" lon="6.63007">
        <ele>342.2</ele>
      </trkpt>
      <trkpt lat="47.60352" lon="6.63007">
        <ele>342.2</ele>
      </trkpt>
    </trkseg>
  </trk>
</gpx>